Terminal Aerodrome Forecast
Issued by NWS Hastings, NE

Home | Current Version | Previous Version | Text Only | Print | Product List | Glossary On
Versions: 1 2 3 4 5 6 7 8 9 10 11 12 13 14 15 16 17 18 19 20 21 22 23 24 25 26 27 28 29 30 31 32 33 34
000
FTUS43 KGID 251730
TAFGRI
TAF
KGRI 251730Z 2518/2618 23010KT P6SM SCT200
     FM252100 20010KT P6SM SCT100 BKN200
     FM260000 24011KT P6SM VCSH SCT025 OVC040
     FM260400 30016G26KT P6SM BKN030
     FM260800 32025G33KT P6SM BKN050=

USA.gov is the U.S. government's official web portal to all federal, state and local government web resources and services.